^^
Daily Summary for October 07, 2021 Units:  Metric    English   Both
Daily Weekly Monthly Yearly Custom
  High: Low: Average:
Temperature: 21.1 °C 11.1 °C 15.1 °C
Dew Point: 9.4 °C -0.6 °C 3.1 °C
Humidity: 58% 29% 45%
Wind Speed: 25.7km/h 0km/h 3.9km/h
Wind Gust: 25.7km/h - -
Wind- - WSW
Pressure: 1019.2 hPa 1015.8 hPa -
Precipitation: 0 mm    
Historical Graphs
 
 
Tabular Data for October 07, 2021
Time Temperature Dew Point Pressure Wind Wind Speed Wind Gust Humidity Rainfall Rate (Hourly) solar
00:04 12.8 °C 1.7 °C 1015.8 hPa Calm     47% 0 mm 0.00 W/m2
00:09 12.8 °C 1.7 °C 1015.8 hPa Calm     48% 0 mm 0.00 W/m2
00:14 12.8 °C 1.7 °C 1015.8 hPa Calm     48% 0 mm 0.00 W/m2
00:19 12.8 °C 1.7 °C 1015.8 hPa Calm     48% 0 mm 0.00 W/m2
00:24 12.2 °C 1.7 °C 1015.8 hPa Calm     48% 0 mm 0.00 W/m2
00:29 12.2 °C 1.7 °C 1015.8 hPa Calm     48% 0 mm 0.00 W/m2
00:34 12.2 °C 1.7 °C 1015.8 hPa Calm     49% 0 mm 0.00 W/m2
00:39 12.2 °C 1.7 °C 1015.8 hPa Calm     49% 0 mm 0.00 W/m2
00:44 12.2 °C 2.2 °C 1015.8 hPa Calm     50% 0 mm 0.00 W/m2
00:49 12.2 °C 2.2 °C 1015.8 hPa Calm     50% 0 mm 0.00 W/m2
00:54 12.2 °C 2.2 °C 1015.8 hPa Calm     51% 0 mm 0.00 W/m2
00:59 12.2 °C 2.2 °C 1015.8 hPa Calm     51% 0 mm 0.00 W/m2
01:04 12.2 °C 2.2 °C 1015.8 hPa Calm     51% 0 mm 0.00 W/m2
01:09 11.7 °C 2.2 °C 1015.8 hPa Calm     52% 0 mm 0.00 W/m2
01:14 11.7 °C 2.2 °C 1015.8 hPa Calm     52% 0 mm 0.00 W/m2
01:19 11.7 °C 2.2 °C 1015.8 hPa Calm     53% 0 mm 0.00 W/m2
01:24 11.7 °C 2.2 °C 1015.8 hPa Calm     53% 0 mm 0.00 W/m2
01:29 11.7 °C 2.2 °C 1015.8 hPa Calm     53% 0 mm 0.00 W/m2
01:34 11.7 °C 2.8 °C 1015.8 hPa Calm     54% 0 mm 0.00 W/m2
01:39 11.7 °C 2.8 °C 1015.8 hPa Calm     54% 0 mm 0.00 W/m2
01:44 11.7 °C 2.8 °C 1015.8 hPa Calm     54% 0 mm 0.00 W/m2
01:49 11.7 °C 2.2 °C 1015.8 hPa Calm     54% 0 mm 0.00 W/m2
01:53 11.7 °C 2.2 °C 1015.8 hPa Calm     54% 0 mm 0.00 W/m2
01:59 11.7 °C 2.2 °C 1015.8 hPa Calm     54% 0 mm 0.00 W/m2
02:04 11.1 °C 2.2 °C 1015.8 hPa Calm     54% 0 mm 0.00 W/m2
02:09 11.1 °C 2.2 °C 1015.8 hPa Calm     54% 0 mm 0.00 W/m2
02:14 11.1 °C 2.8 °C 1015.8 hPa Calm     55% 0 mm 0.00 W/m2
02:19 11.1 °C 2.8 °C 1015.8 hPa Calm     55% 0 mm 0.00 W/m2
02:24 11.1 °C 2.8 °C 1015.8 hPa Calm     56% 0 mm 0.00 W/m2
02:29 11.1 °C 2.8 °C 1015.8 hPa Calm     56% 0 mm 0.00 W/m2
02:34 11.1 °C 2.8 °C 1015.8 hPa Calm     56% 0 mm 0.00 W/m2
02:39 11.1 °C 2.8 °C 1015.8 hPa Calm     56% 0 mm 0.00 W/m2
02:44 11.1 °C 2.8 °C 1015.8 hPa Calm     56% 0 mm 0.00 W/m2
02:49 11.1 °C 2.8 °C 1015.8 hPa Calm     56% 0 mm 0.00 W/m2
02:54 11.1 °C 2.8 °C 1015.8 hPa Calm     56% 0 mm 0.00 W/m2
02:59 11.1 °C 2.8 °C 1015.8 hPa Calm     56% 0 mm 0.00 W/m2
03:04 11.1 °C 2.8 °C 1015.8 hPa Calm     56% 0 mm 0.00 W/m2
03:09 11.1 °C 2.8 °C 1015.8 hPa Calm     57% 0 mm 0.00 W/m2
03:14 11.1 °C 2.8 °C 1015.8 hPa Calm     57% 0 mm 0.00 W/m2
03:19 11.1 °C 2.8 °C 1015.8 hPa Calm     57% 0 mm 0.00 W/m2
03:24 11.1 °C 2.8 °C 1015.8 hPa Calm     57% 0 mm 0.00 W/m2
03:29 11.1 °C 3.3 °C 1015.8 hPa Calm     58% 0 mm 0.00 W/m2
03:34 11.1 °C 3.3 °C 1015.8 hPa Calm     58% 0 mm 0.00 W/m2
03:39 11.1 °C 3.3 °C 1015.8 hPa Calm     58% 0 mm 0.00 W/m2
03:44 11.1 °C 3.3 °C 1015.8 hPa Calm     57% 0 mm 0.00 W/m2
03:49 11.7 °C 3.3 °C 1015.8 hPa Calm     57% 0 mm 0.00 W/m2
03:54 11.7 °C 3.3 °C 1015.8 hPa Calm     57% 0 mm 0.00 W/m2
03:59 11.7 °C 3.3 °C 1015.8 hPa Calm     57% 0 mm 0.00 W/m2
04:04 11.7 °C 2.8 °C 1015.8 hPa Calm     56% 0 mm 0.00 W/m2
04:09 11.7 °C 2.8 °C 1015.8 hPa Calm     56% 0 mm 0.00 W/m2
04:14 11.7 °C 2.8 °C 1015.8 hPa Calm     55% 0 mm 0.00 W/m2
04:19 11.7 °C 2.8 °C 1015.8 hPa Calm     55% 0 mm 0.00 W/m2
04:24 11.7 °C 2.8 °C 1015.8 hPa Calm     55% 0 mm 0.00 W/m2
04:29 11.7 °C 2.8 °C 1015.8 hPa Calm     54% 0 mm 0.00 W/m2
04:34 11.7 °C 2.8 °C 1015.8 hPa Calm     54% 0 mm 0.00 W/m2
04:38 11.7 °C 2.8 °C 1015.8 hPa Calm     54% 0 mm 0.00 W/m2
04:44 11.7 °C 2.8 °C 1015.8 hPa Calm     55% 0 mm 0.00 W/m2
04:49 11.7 °C 2.8 °C 1015.8 hPa Calm     55% 0 mm 0.00 W/m2
04:54 11.7 °C 2.8 °C 1015.8 hPa Calm     55% 0 mm 0.00 W/m2
04:59 11.7 °C 2.8 °C 1015.8 hPa Calm     54% 0 mm 0.00 W/m2
05:04 11.7 °C 2.8 °C 1015.8 hPa Calm     54% 0 mm 0.00 W/m2
05:09 11.7 °C 2.8 °C 1015.8 hPa Calm     55% 0 mm 0.00 W/m2
05:14 11.7 °C 2.8 °C 1015.8 hPa Calm     55% 0 mm 0.00 W/m2
05:19 11.7 °C 2.8 °C 1015.8 hPa Calm     55% 0 mm 0.00 W/m2
05:24 11.7 °C 2.8 °C 1015.8 hPa Calm     55% 0 mm 0.00 W/m2
05:29 11.7 °C 2.8 °C 1015.8 hPa Calm     54% 0 mm 0.00 W/m2
05:34 11.7 °C 2.2 °C 1015.8 hPa Calm     52% 0 mm 0.00 W/m2
05:39 11.7 °C 1.7 °C 1015.8 hPa Calm     51% 0 mm 0.00 W/m2
05:44 11.7 °C 1.7 °C 1015.8 hPa Calm     50% 0 mm 0.00 W/m2
05:49 11.7 °C 2.8 °C 1015.8 hPa Calm     54% 0 mm 0.00 W/m2
05:54 11.7 °C 2.2 °C 1015.8 hPa Calm     53% 0 mm 0.00 W/m2
05:59 11.7 °C 2.8 °C 1015.8 hPa Calm     54% 0 mm 0.00 W/m2
06:04 11.7 °C 2.8 °C 1015.8 hPa Calm     55% 0 mm 0.00 W/m2
06:09 11.7 °C 2.8 °C 1015.8 hPa Calm     54% 0 mm 0.00 W/m2
06:14 11.7 °C 2.8 °C 1015.8 hPa Calm     54% 0 mm 0.00 W/m2
06:19 11.7 °C 2.2 °C 1015.8 hPa Calm     53% 0 mm 0.00 W/m2
06:24 11.7 °C 2.2 °C 1015.8 hPa Calm     52% 0 mm 0.00 W/m2
06:29 11.7 °C 2.2 °C 1015.8 hPa Calm     52% 0 mm 0.00 W/m2
06:34 11.7 °C 1.7 °C 1015.8 hPa Calm     50% 0 mm 0.00 W/m2
06:39 11.7 °C 0.6 °C 1015.8 hPa Calm     47% 0 mm 0.00 W/m2
06:44 11.7 °C 0.6 °C 1015.8 hPa Calm     46% 0 mm 0.00 W/m2
06:49 11.7 °C 1.1 °C 1015.8 hPa Calm     49% 0 mm 0.00 W/m2
06:54 11.7 °C 2.2 °C 1015.8 hPa Calm     52% 0 mm 0.00 W/m2
06:59 11.7 °C 1.1 °C 1015.8 hPa Calm     48% 0 mm 0.00 W/m2
07:04 11.7 °C 0.6 °C 1015.8 hPa Calm     47% 0 mm 0.00 W/m2
07:09 11.7 °C 0.6 °C 1019.2 hPa Calm     46% 0 mm 0.00 W/m2
07:14 11.7 °C 0.6 °C 1019.2 hPa Calm     46% 0 mm 11.00 W/m2
07:19 11.7 °C 0 °C 1019.2 hPa Calm     45% 0 mm 25.00 W/m2
07:24 11.7 °C 0 °C 1019.2 hPa Calm     44% 0 mm 40.00 W/m2
07:29 11.7 °C -0.6 °C 1019.2 hPa Calm     43% 0 mm 49.00 W/m2
07:34 11.7 °C -0.6 °C 1019.2 hPa Calm     43% 0 mm 49.00 W/m2
07:39 11.7 °C 0 °C 1019.2 hPa Calm     45% 0 mm 39.00 W/m2
07:44 11.7 °C 0.6 °C 1019.2 hPa Calm     47% 0 mm 39.00 W/m2
07:49 11.7 °C 1.1 °C 1019.2 hPa Calm     48% 0 mm 33.00 W/m2
07:54 11.7 °C 1.1 °C 1019.2 hPa Calm     48% 0 mm 39.00 W/m2
07:59 11.7 °C 1.1 °C 1019.2 hPa Calm     48% 0 mm 51.00 W/m2
08:04 11.7 °C 0 °C 1019.2 hPa Calm     44% 0 mm 53.00 W/m2
08:09 11.7 °C 0.6 °C 1019.2 hPa Calm     45% 0 mm 49.00 W/m2
08:14 12.2 °C 0 °C 1019.2 hPa Calm     44% 0 mm 67.00 W/m2
08:19 12.2 °C 0 °C 1019.2 hPa Calm     43% 0 mm 77.00 W/m2
08:24 12.2 °C 1.1 °C 1019.2 hPa Calm     46% 0 mm 84.00 W/m2
08:29 12.2 °C 1.1 °C 1019.2 hPa Calm     47% 0 mm 98.00 W/m2
08:34 12.2 °C 1.1 °C 1019.2 hPa Calm     46% 0 mm 76.00 W/m2
08:39 12.8 °C 0 °C 1019.2 hPa Calm     42% 0 mm 74.00 W/m2
08:44 12.8 °C 0.6 °C 1019.2 hPa Calm     44% 0 mm 74.00 W/m2
08:49 12.8 °C 1.1 °C 1019.2 hPa Calm     45% 0 mm 76.00 W/m2
08:54 12.8 °C 1.7 °C 1019.2 hPa Calm     47% 0 mm 86.00 W/m2
08:59 13.3 °C 0.6 °C 1019.2 hPa SW 3.2 km/h 3.2 km/h 43% 0 mm 88.00 W/m2
09:04 13.3 °C 0 °C 1019.2 hPa Calm   3.2 km/h 40% 0 mm 90.00 W/m2
09:09 13.3 °C 0.6 °C 1019.2 hPa WSW 3.2 km/h   41% 0 mm 113.00 W/m2
09:14 13.3 °C 1.1 °C 1019.2 hPa WSW 3.2 km/h 3.2 km/h 42% 0 mm 294.00 W/m2
09:19 13.9 °C 1.1 °C 1019.2 hPa WSW 3.2 km/h 3.2 km/h 42% 0 mm 264.00 W/m2
09:24 13.9 °C 0.6 °C 1019.2 hPa WSW 3.2 km/h   41% 0 mm 236.00 W/m2
09:29 13.9 °C 0.6 °C 1019.2 hPa WSW 3.2 km/h 3.2 km/h 40% 0 mm 578.00 W/m2
09:34 13.9 °C 0.6 °C 1019.2 hPa Calm   3.2 km/h 40% 0 mm 570.00 W/m2
09:39 14.4 °C 0.6 °C 1019.2 hPa WSW 3.2 km/h   39% 0 mm 615.00 W/m2
09:44 14.4 °C 1.1 °C 1019.2 hPa WSW 3.2 km/h 3.2 km/h 40% 0 mm 615.00 W/m2
09:49 15 °C 1.1 °C 1019.2 hPa South 3.2 km/h 3.2 km/h 40% 0 mm 471.00 W/m2
09:54 15 °C 0.6 °C 1019.2 hPa SSW 3.2 km/h 3.2 km/h 38% 0 mm 301.00 W/m2
09:59 15.6 °C 1.1 °C 1019.2 hPa WNW 9.7 km/h 4.8 km/h 39% 0 mm 348.00 W/m2
10:04 15.6 °C 0 °C 1019.2 hPa West 11.3 km/h 9.7 km/h 35% 0 mm 649.00 W/m2
10:09 16.1 °C 0.6 °C 1019.2 hPa West 3.2 km/h 11.3 km/h 36% 0 mm 188.00 W/m2
10:14 16.1 °C 1.1 °C 1019.2 hPa West 3.2 km/h   36% 0 mm 202.00 W/m2
10:19 16.1 °C 1.1 °C 1019.2 hPa West 3.2 km/h 3.2 km/h 35% 0 mm 197.00 W/m2
10:24 16.7 °C 1.7 °C 1019.2 hPa West 3.2 km/h 3.2 km/h 37% 0 mm 183.00 W/m2
10:29 16.7 °C 2.2 °C 1019.2 hPa West 3.2 km/h 3.2 km/h 38% 0 mm 153.00 W/m2
10:34 16.7 °C 2.2 °C 1019.2 hPa WNW 9.7 km/h 3.2 km/h 38% 0 mm 726.00 W/m2
10:39 16.7 °C 2.8 °C 1019.2 hPa NW 6.4 km/h 9.7 km/h 39% 0 mm 638.00 W/m2
10:44 16.7 °C 2.8 °C 1019.2 hPa WNW 6.4 km/h 4.8 km/h 39% 0 mm 638.00 W/m2
10:49 16.7 °C 2.2 °C 1019.2 hPa WNW 11.3 km/h 6.4 km/h 38% 0 mm 733.00 W/m2
10:54 17.2 °C 2.2 °C 1019.2 hPa WNW 6.4 km/h 11.3 km/h 37% 0 mm 330.00 W/m2
10:59 17.2 °C 2.2 °C 1019.2 hPa West 11.3 km/h 4.8 km/h 37% 0 mm 795.00 W/m2
11:04 17.2 °C 2.2 °C 1019.2 hPa WNW 11.3 km/h 11.3 km/h 36% 0 mm 633.00 W/m2
11:09 17.8 °C 2.8 °C 1019.2 hPa NNW 11.3 km/h 11.3 km/h 38% 0 mm 269.00 W/m2
11:14 17.8 °C 2.8 °C 1019.2 hPa WNW 11.3 km/h 11.3 km/h 37% 0 mm 258.00 W/m2
11:19 17.8 °C 3.3 °C 1019.2 hPa West 11.3 km/h 9.7 km/h 39% 0 mm 204.00 W/m2
11:24 17.8 °C 2.2 °C 1019.2 hPa WNW 14.5 km/h 11.3 km/h 36% 0 mm 819.00 W/m2
11:29 17.8 °C 2.8 °C 1019.2 hPa WNW 6.4 km/h 14.5 km/h 36% 0 mm 809.00 W/m2
11:34 17.8 °C 2.8 °C 1019.2 hPa NW 11.3 km/h 8 km/h 36% 0 mm 728.00 W/m2
11:39 17.8 °C 2.2 °C 1019.2 hPa North 6.4 km/h 11.3 km/h 35% 0 mm 415.00 W/m2
11:44 17.8 °C 2.2 °C 1019.2 hPa NW 11.3 km/h 8 km/h 35% 0 mm 487.00 W/m2
11:49 17.8 °C 2.8 °C 1019.2 hPa WNW 11.3 km/h 11.3 km/h 36% 0 mm 292.00 W/m2
11:54 18.3 °C 3.3 °C 1019.2 hPa WNW 3.2 km/h 9.7 km/h 37% 0 mm 287.00 W/m2
11:59 18.3 °C 2.8 °C 1019.2 hPa NW 14.5 km/h 16.1 km/h 36% 0 mm 819.00 W/m2
12:04 18.3 °C 3.3 °C 1019.2 hPa NW 17.7 km/h 14.5 km/h 36% 0 mm 895.00 W/m2
12:09 18.9 °C 2.8 °C 1019.2 hPa North 9.7 km/h 16.1 km/h 35% 0 mm 895.00 W/m2
12:14 18.9 °C 2.8 °C 1019.2 hPa WSW 9.7 km/h 3.2 km/h 34% 0 mm 861.00 W/m2
12:19 19.4 °C 2.8 °C 1019.2 hPa SSW 20.9 km/h 11.3 km/h 34% 0 mm 283.00 W/m2
12:24 19.4 °C 1.7 °C 1019.2 hPa NNW 11.3 km/h 20.9 km/h 31% 0 mm 895.00 W/m2
12:29 19.4 °C 1.7 °C 1019.2 hPa NNW 11.3 km/h 11.3 km/h 30% 0 mm 861.00 W/m2
12:34 20 °C 1.7 °C 1019.2 hPa NNW 6.4 km/h 9.7 km/h 30% 0 mm 195.00 W/m2
12:39 20 °C 2.2 °C 1019.2 hPa WSW 11.3 km/h 6.4 km/h 31% 0 mm 244.00 W/m2
12:44 20 °C 2.2 °C 1019.2 hPa NW 11.3 km/h 11.3 km/h 31% 0 mm 244.00 W/m2
12:49 19.4 °C 1.7 °C 1019.2 hPa NW 9.7 km/h 3.2 km/h 30% 0 mm 269.00 W/m2
12:54 20 °C 2.2 °C 1019.2 hPa NNW 11.3 km/h 9.7 km/h 31% 0 mm 886.00 W/m2
12:59 20 °C 1.7 °C 1019.2 hPa WSW 20.9 km/h 11.3 km/h 30% 0 mm 886.00 W/m2
13:04 20 °C 2.2 °C 1015.8 hPa NW 11.3 km/h 8 km/h 31% 0 mm 846.00 W/m2
13:09 20.6 °C 2.8 °C 1015.8 hPa West 14.5 km/h 11.3 km/h 31% 0 mm 338.00 W/m2
13:14 20.6 °C 2.2 °C 1015.8 hPa NW 17.7 km/h 14.5 km/h 30% 0 mm 784.00 W/m2
13:19 20.6 °C 2.8 °C 1015.8 hPa NW 17.7 km/h 16.1 km/h 31% 0 mm 853.00 W/m2
13:24 20.6 °C 2.8 °C 1015.8 hPa South 6.4 km/h 16.1 km/h 31% 0 mm 837.00 W/m2
13:29 21.1 °C 2.8 °C 1015.8 hPa NW 14.5 km/h 12.9 km/h 30% 0 mm 387.00 W/m2
13:34 21.1 °C 2.2 °C 1015.8 hPa NNW 17.7 km/h 14.5 km/h 29% 0 mm 306.00 W/m2
13:39 21.1 °C 2.2 °C 1015.8 hPa NW 11.3 km/h 16.1 km/h 29% 0 mm 248.00 W/m2
13:44 21.1 °C 2.2 °C 1015.8 hPa WNW 14.5 km/h 11.3 km/h 29% 0 mm 350.00 W/m2
13:49 21.1 °C 3.3 °C 1015.8 hPa WNW 11.3 km/h 14.5 km/h 31% 0 mm 304.00 W/m2
13:54 21.1 °C 3.3 °C 1015.8 hPa NNW 9.7 km/h 11.3 km/h 31% 0 mm 350.00 W/m2
13:59 21.1 °C 3.3 °C 1015.8 hPa South 3.2 km/h 9.7 km/h 31% 0 mm 415.00 W/m2
14:04 21.1 °C 3.3 °C 1015.8 hPa ESE 11.3 km/h 3.2 km/h 31% 0 mm 410.00 W/m2
14:09 21.1 °C 2.8 °C 1015.8 hPa North 11.3 km/h 11.3 km/h 30% 0 mm 288.00 W/m2
14:14 21.1 °C 3.3 °C 1015.8 hPa North 14.5 km/h 11.3 km/h 31% 0 mm 359.00 W/m2
14:19 21.1 °C 3.9 °C 1015.8 hPa South 14.5 km/h 14.5 km/h 33% 0 mm 330.00 W/m2
14:24 21.1 °C 3.9 °C 1015.8 hPa South 11.3 km/h 14.5 km/h 33% 0 mm 715.00 W/m2
14:29 21.1 °C 4.4 °C 1015.8 hPa SSW 25.7 km/h 14.5 km/h 34% 0 mm 715.00 W/m2
14:34 21.1 °C 3.9 °C 1015.8 hPa SSW 14.5 km/h 25.7 km/h 32% 0 mm 206.00 W/m2
14:39 21.1 °C 4.4 °C 1015.8 hPa NNW 9.7 km/h 9.7 km/h 33% 0 mm 113.00 W/m2
14:44 21.1 °C 5 °C 1015.8 hPa Calm   9.7 km/h 35% 0 mm 190.00 W/m2
14:49 21.1 °C 9.4 °C 1015.8 hPa NNW 3.2 km/h 3.2 km/h 47% 0 mm 185.00 W/m2
14:54 21.1 °C 9.4 °C 1015.8 hPa NNW 3.2 km/h 3.2 km/h 47% 0 mm 155.00 W/m2
14:59 20.6 °C 8.9 °C 1015.8 hPa West 3.2 km/h   46% 0 mm 148.00 W/m2
15:04 20.6 °C 6.7 °C 1015.8 hPa SSW 9.7 km/h 4.8 km/h 41% 0 mm 114.00 W/m2
15:09 20 °C 6.7 °C 1015.8 hPa SSW 3.2 km/h 9.7 km/h 42% 0 mm 95.00 W/m2
15:14 20 °C 6.7 °C 1015.8 hPa SSE 8 km/h 3.2 km/h 42% 0 mm 137.00 W/m2
15:19 19.4 °C 6.7 °C 1015.8 hPa SSE 3.2 km/h 8 km/h 43% 0 mm 148.00 W/m2
15:24 19.4 °C 6.7 °C 1015.8 hPa SSE 3.2 km/h 3.2 km/h 43% 0 mm 137.00 W/m2
15:29 19.4 °C 6.1 °C 1015.8 hPa Calm     43% 0 mm 146.00 W/m2
15:34 18.9 °C 6.7 °C 1015.8 hPa Calm     45% 0 mm 139.00 W/m2
15:39 18.9 °C 6.7 °C 1015.8 hPa SSE 6.4 km/h 1.6 km/h 45% 0 mm 123.00 W/m2
15:44 18.9 °C 7.2 °C 1015.8 hPa SSE 3.2 km/h 4.8 km/h 46% 0 mm 109.00 W/m2
15:49 18.9 °C 7.8 °C 1015.8 hPa South 9.7 km/h 3.2 km/h 49% 0 mm 193.00 W/m2
15:54 18.9 °C 7.8 °C 1015.8 hPa South 3.2 km/h 9.7 km/h 49% 0 mm 144.00 W/m2
15:59 18.9 °C 6.7 °C 1015.8 hPa Calm   3.2 km/h 46% 0 mm 137.00 W/m2
16:04 18.9 °C 6.7 °C 1015.8 hPa South 3.2 km/h   46% 0 mm 121.00 W/m2
16:09 18.9 °C 6.1 °C 1015.8 hPa South 3.2 km/h 3.2 km/h 43% 0 mm 137.00 W/m2
16:14 18.9 °C 6.7 °C 1015.8 hPa South 3.2 km/h 3.2 km/h 45% 0 mm 294.00 W/m2
16:19 18.9 °C 6.1 °C 1015.8 hPa South 3.2 km/h 3.2 km/h 44% 0 mm 371.00 W/m2
16:24 18.9 °C 6.7 °C 1015.8 hPa South 3.2 km/h 3.2 km/h 45% 0 mm 408.00 W/m2
16:29 18.9 °C 6.7 °C 1015.8 hPa West 6.4 km/h 3.2 km/h 44% 0 mm 225.00 W/m2
16:34 19.4 °C 5 °C 1015.8 hPa WSW 3.2 km/h 4.8 km/h 40% 0 mm 167.00 W/m2
16:39 19.4 °C 5.6 °C 1015.8 hPa West 11.3 km/h 6.4 km/h 40% 0 mm 118.00 W/m2
16:44 19.4 °C 4.4 °C 1015.8 hPa NW 11.3 km/h 11.3 km/h 37% 0 mm 121.00 W/m2
16:49 19.4 °C 3.9 °C 1015.8 hPa WNW 6.4 km/h 11.3 km/h 36% 0 mm 97.00 W/m2
16:54 19.4 °C 5 °C 1015.8 hPa WNW 3.2 km/h 4.8 km/h 38% 0 mm 54.00 W/m2
16:59 19.4 °C 4.4 °C 1015.8 hPa West 14.5 km/h 11.3 km/h 37% 0 mm 46.00 W/m2
17:04 19.4 °C 3.3 °C 1015.8 hPa WNW 14.5 km/h 14.5 km/h 35% 0 mm 42.00 W/m2
17:09 19.4 °C 5 °C 1015.8 hPa NW 3.2 km/h 3.2 km/h 39% 0 mm 53.00 W/m2
17:14 18.9 °C 3.9 °C 1015.8 hPa WNW 9.7 km/h 6.4 km/h 37% 0 mm 47.00 W/m2
17:19 18.9 °C 4.4 °C 1015.8 hPa Calm   9.7 km/h 39% 0 mm 39.00 W/m2
17:24 18.9 °C 3.9 °C 1015.8 hPa WNW 6.4 km/h 3.2 km/h 37% 0 mm 32.00 W/m2
17:29 18.9 °C 3.9 °C 1015.8 hPa WNW 9.7 km/h 4.8 km/h 38% 0 mm 23.00 W/m2
17:34 18.3 °C 3.9 °C 1015.8 hPa West 14.5 km/h 9.7 km/h 38% 0 mm 37.00 W/m2
17:39 18.3 °C 3.3 °C 1015.8 hPa WNW 14.5 km/h 14.5 km/h 37% 0 mm 44.00 W/m2
17:44 18.3 °C 3.9 °C 1015.8 hPa SW 9.7 km/h 9.7 km/h 39% 0 mm 39.00 W/m2
17:49 18.3 °C 3.9 °C 1015.8 hPa WNW 6.4 km/h 9.7 km/h 39% 0 mm 30.00 W/m2
17:54 18.3 °C 3.9 °C 1015.8 hPa WNW 9.7 km/h 9.7 km/h 39% 0 mm 18.00 W/m2
17:59 17.8 °C 3.9 °C 1015.8 hPa West 3.2 km/h 4.8 km/h 39% 0 mm 12.00 W/m2
18:04 17.8 °C 3.9 °C 1015.8 hPa WNW 11.3 km/h 8 km/h 39% 0 mm 16.00 W/m2
18:09 17.8 °C 2.8 °C 1015.8 hPa NNW 3.2 km/h 11.3 km/h 37% 0 mm 18.00 W/m2
18:14 17.8 °C 2.8 °C 1015.8 hPa WNW 9.7 km/h 4.8 km/h 37% 0 mm 14.00 W/m2
18:19 17.2 °C 2.8 °C 1015.8 hPa WNW 11.3 km/h 3.2 km/h 37% 0 mm 9.00 W/m2
18:24 17.2 °C 2.8 °C 1015.8 hPa NW 3.2 km/h 11.3 km/h 37% 0 mm 5.00 W/m2
18:29 17.2 °C 2.2 °C 1015.8 hPa NW 9.7 km/h 3.2 km/h 37% 0 mm 0.00 W/m2
18:34 17.2 °C 2.8 °C 1015.8 hPa WNW 3.2 km/h 9.7 km/h 39% 0 mm 0.00 W/m2
18:39 17.2 °C 2.8 °C 1015.8 hPa WSW 6.4 km/h 3.2 km/h 39% 0 mm 0.00 W/m2
18:44 16.7 °C 3.3 °C 1015.8 hPa Calm   4.8 km/h 40% 0 mm 0.00 W/m2
18:49 16.7 °C 3.3 °C 1015.8 hPa South 3.2 km/h 3.2 km/h 40% 0 mm 0.00 W/m2
18:54 16.7 °C 3.3 °C 1015.8 hPa Calm     40% 0 mm 0.00 W/m2
18:59 16.7 °C 2.8 °C 1015.8 hPa Calm     40% 0 mm 0.00 W/m2
19:04 16.7 °C 2.8 °C 1015.8 hPa Calm     40% 0 mm 0.00 W/m2
19:09 16.7 °C 3.3 °C 1015.8 hPa Calm     41% 0 mm 0.00 W/m2
19:14 16.7 °C 3.3 °C 1015.8 hPa South 3.2 km/h 1.6 km/h 42% 0 mm 0.00 W/m2
19:19 16.1 °C 3.3 °C 1015.8 hPa Calm   3.2 km/h 42% 0 mm 0.00 W/m2
19:24 16.1 °C 3.3 °C 1015.8 hPa Calm     43% 0 mm 0.00 W/m2
19:29 16.1 °C 3.9 °C 1015.8 hPa South 3.2 km/h   44% 0 mm 0.00 W/m2
19:34 16.1 °C 3.9 °C 1015.8 hPa SW 8 km/h 3.2 km/h 44% 0 mm 0.00 W/m2
19:39 16.1 °C 3.9 °C 1019.2 hPa West 9.7 km/h 9.7 km/h 45% 0 mm 0.00 W/m2
19:44 15.6 °C 3.9 °C 1015.8 hPa West 3.2 km/h 4.8 km/h 46% 0 mm 0.00 W/m2
19:49 15.6 °C 3.9 °C 1015.8 hPa West 3.2 km/h 3.2 km/h 45% 0 mm 0.00 W/m2
19:54 15.6 °C 3.9 °C 1019.2 hPa West 3.2 km/h 3.2 km/h 46% 0 mm 0.00 W/m2
19:59 15.6 °C 3.9 °C 1019.2 hPa Calm     46% 0 mm 0.00 W/m2
20:04 15.6 °C 3.9 °C 1019.2 hPa Calm     46% 0 mm 0.00 W/m2
20:09 15.6 °C 4.4 °C 1015.8 hPa West 3.2 km/h   47% 0 mm 0.00 W/m2
20:14 15.6 °C 4.4 °C 1015.8 hPa West 3.2 km/h 3.2 km/h 48% 0 mm 0.00 W/m2
20:19 15.6 °C 4.4 °C 1019.2 hPa Calm     48% 0 mm 0.00 W/m2
20:24 15.6 °C 3.9 °C 1019.2 hPa West 6.4 km/h 1.6 km/h 47% 0 mm 0.00 W/m2
20:29 15 °C 3.9 °C 1019.2 hPa WNW 9.7 km/h 4.8 km/h 47% 0 mm 0.00 W/m2
20:34 15 °C 3.9 °C 1019.2 hPa WNW 11.3 km/h 9.7 km/h 47% 0 mm 0.00 W/m2
20:39 15 °C 3.9 °C 1019.2 hPa SW 6.4 km/h 11.3 km/h 47% 0 mm 0.00 W/m2
20:44 15 °C 3.9 °C 1019.2 hPa SSW 3.2 km/h 4.8 km/h 48% 0 mm 0.00 W/m2
20:49 15 °C 3.9 °C 1019.2 hPa SW 6.4 km/h 3.2 km/h 48% 0 mm 0.00 W/m2
20:54 15 °C 3.9 °C 1019.2 hPa Calm   4.8 km/h 48% 0 mm 0.00 W/m2
20:59 14.4 °C 3.9 °C 1019.2 hPa SW 3.2 km/h 3.2 km/h 49% 0 mm 0.00 W/m2
21:04 14.4 °C 3.9 °C 1019.2 hPa SW 3.2 km/h 3.2 km/h 49% 0 mm 0.00 W/m2
21:09 14.4 °C 3.9 °C 1019.2 hPa Calm     49% 0 mm 0.00 W/m2
21:14 14.4 °C 4.4 °C 1019.2 hPa SW 3.2 km/h   50% 0 mm 0.00 W/m2
21:19 14.4 °C 3.9 °C 1019.2 hPa Calm   3.2 km/h 50% 0 mm 0.00 W/m2
21:24 14.4 °C 3.9 °C 1019.2 hPa Calm     50% 0 mm 0.00 W/m2
21:29 14.4 °C 4.4 °C 1019.2 hPa SW 3.2 km/h   51% 0 mm 0.00 W/m2
21:34 13.9 °C 3.9 °C 1019.2 hPa Calm   3.2 km/h 51% 0 mm 0.00 W/m2
21:39 13.9 °C 3.9 °C 1019.2 hPa Calm     51% 0 mm 0.00 W/m2
21:44 13.9 °C 3.9 °C 1019.2 hPa Calm     51% 0 mm 0.00 W/m2
21:49 13.9 °C 3.9 °C 1019.2 hPa SW 6.4 km/h 1.6 km/h 51% 0 mm 0.00 W/m2
21:54 13.9 °C 3.9 °C 1019.2 hPa SW 3.2 km/h 4.8 km/h 52% 0 mm 0.00 W/m2
21:59 13.9 °C 4.4 °C 1019.2 hPa Calm   3.2 km/h 53% 0 mm 0.00 W/m2
22:04 13.9 °C 4.4 °C 1019.2 hPa Calm     53% 0 mm 0.00 W/m2
22:09 13.9 °C 4.4 °C 1019.2 hPa Calm     53% 0 mm 0.00 W/m2
22:14 13.9 °C 4.4 °C 1019.2 hPa SW 6.4 km/h 1.6 km/h 53% 0 mm 0.00 W/m2
22:19 13.9 °C 4.4 °C 1015.8 hPa SW 3.2 km/h 4.8 km/h 53% 0 mm 0.00 W/m2
22:24 13.9 °C 4.4 °C 1019.2 hPa SW 3.2 km/h 3.2 km/h 53% 0 mm 0.00 W/m2
22:29 13.9 °C 3.9 °C 1019.2 hPa Calm   3.2 km/h 52% 0 mm 0.00 W/m2
22:34 13.3 °C 4.4 °C 1019.2 hPa Calm     53% 0 mm 0.00 W/m2
22:39 13.3 °C 4.4 °C 1019.2 hPa Calm     53% 0 mm 0.00 W/m2
22:44 13.3 °C 3.9 °C 1019.2 hPa Calm     53% 0 mm 0.00 W/m2
22:49 13.3 °C 3.9 °C 1019.2 hPa Calm     53% 0 mm 0.00 W/m2
22:54 13.3 °C 3.9 °C 1019.2 hPa SW 3.2 km/h   53% 0 mm 0.00 W/m2
22:59 13.3 °C 3.9 °C 1019.2 hPa Calm   3.2 km/h 53% 0 mm 0.00 W/m2
23:04 13.3 °C 3.9 °C 1019.2 hPa Calm     53% 0 mm 0.00 W/m2
23:09 13.3 °C 4.4 °C 1015.8 hPa SW 3.2 km/h   54% 0 mm 0.00 W/m2
23:14 13.3 °C 4.4 °C 1019.2 hPa Calm   3.2 km/h 55% 0 mm 0.00 W/m2
23:19 13.3 °C 4.4 °C 1019.2 hPa SW 3.2 km/h   55% 0 mm 0.00 W/m2
23:24 13.3 °C 4.4 °C 1019.2 hPa Calm   3.2 km/h 55% 0 mm 0.00 W/m2
23:29 13.3 °C 4.4 °C 1019.2 hPa SW 6.4 km/h 1.6 km/h 55% 0 mm 0.00 W/m2
23:34 13.3 °C 4.4 °C 1019.2 hPa Calm   4.8 km/h 55% 0 mm 0.00 W/m2
23:39 13.3 °C 4.4 °C 1019.2 hPa Calm     55% 0 mm 0.00 W/m2
23:44 13.3 °C 4.4 °C 1019.2 hPa Calm     55% 0 mm 0.00 W/m2
23:49 13.3 °C 4.4 °C 1019.2 hPa SW 3.2 km/h 1.6 km/h 56% 0 mm 0.00 W/m2
23:54 13.3 °C 4.4 °C 1019.2 hPa SW 3.2 km/h 3.2 km/h 56% 0 mm 0.00 W/m2
23:59 13.3 °C 5 °C 1019.2 hPa SW 3.2 km/h 1.6 km/h 57% 0 mm 0.00 W/m2
El Dorado Weather
Compliments of Weather Underground - 4 mb